sensor_id;sensor_type;location;lat;lon;timestamp;pressure;altitude;pressure_sealevel;temperature;humidity
6899;BME280;3488;42.616;23.350;2023-03-01T00:00:07;62583.16;;;5.71;100.00
6899;BME280;3488;42.616;23.350;2023-03-01T00:02:34;62584.06;;;5.67;100.00
6899;BME280;3488;42.616;23.350;2023-03-01T00:05:02;62584.06;;;5.67;100.00
6899;BME280;3488;42.616;23.350;2023-03-01T00:07:31;62591.38;;;5.79;100.00
6899;BME280;3488;42.616;23.350;2023-03-01T00:09:58;62588.28;;;5.76;100.00
6899;BME280;3488;42.616;23.350;2023-03-01T00:12:25;62552.75;;;5.41;100.00
6899;BME280;3488;42.616;23.350;2023-03-01T00:14:53;62548.63;;;5.37;100.00
6899;BME280;3488;42.616;23.350;2023-03-01T00:17:20;62528.03;;;5.17;100.00
6899;BME280;3488;42.616;23.350;2023-03-01T00:19:47;62559.44;;;5.48;100.00
6899;BME280;3488;42.616;23.350;2023-03-01T00:22:13;62559.97;;;5.48;100.00
6899;BME280;3488;42.616;23.350;2023-03-01T00:24:42;62556.28;;;5.42;100.00
6899;BME280;3488;42.616;23.350;2023-03-01T00:27:08;62541.94;;;5.31;100.00
6899;BME280;3488;42.616;23.350;2023-03-01T00:29:35;62547.03;;;5.33;100.00
6899;BME280;3488;42.616;23.350;2023-03-01T00:32:02;62541.94;;;5.31;100.00
6899;BME280;3488;42.616;23.350;2023-03-01T00:34:29;62542.91;;;5.29;100.00
6899;BME280;3488;42.616;23.350;2023-03-01T00:36:56;62554.28;;;5.43;100.00
6899;BME280;3488;42.616;23.350;2023-03-01T00:39:30;62554.28;;;5.43;100.00
6899;BME280;3488;42.616;23.350;2023-03-01T00:41:59;62584.50;;;5.62;100.00
6899;BME280;3488;42.616;23.350;2023-03-01T00:44:26;62577.00;;;5.67;100.00
6899;BME280;3488;42.616;23.350;2023-03-01T00:46:53;62579.00;;;5.67;100.00
6899;BME280;3488;42.616;23.350;2023-03-01T00:49:20;62605.31;;;5.93;100.00
6899;BME280;3488;42.616;23.350;2023-03-01T00:51:49;62623.78;;;6.06;100.00
6899;BME280;3488;42.616;23.350;2023-03-01T00:54:16;62625.44;;;6.15;100.00
6899;BME280;3488;42.616;23.350;2023-03-01T00:56:43;62632.09;;;6.19;100.00
6899;BME280;3488;42.616;23.350;2023-03-01T00:59:11;62627.34;;;6.09;100.00
6899;BME280;3488;42.616;23.350;2023-03-01T01:01:38;62623.28;;;6.08;100.00
6899;BME280;3488;42.616;23.350;2023-03-01T01:04:07;62627.94;;;6.12;100.00
6899;BME280;3488;42.616;23.350;2023-03-01T01:06:36;62608.41;;;5.96;100.00
6899;BME280;3488;42.616;23.350;2023-03-01T01:09:04;62613.50;;;5.98;100.00
6899;BME280;3488;42.616;23.350;2023-03-01T01:11:32;62586.78;;;5.77;100.00
6899;BME280;3488;42.616;23.350;2023-03-01T01:14:00;62577.47;;;5.65;100.00
6899;BME280;3488;42.616;23.350;2023-03-01T01:16:29;62572.22;;;5.55;100.00
6899;BME280;3488;42.616;23.350;2023-03-01T01:18:57;62557.28;;;5.41;100.00
6899;BME280;3488;42.616;23.350;2023-03-01T01:21:25;62530.03;;;5.17;100.00
6899;BME280;3488;42.616;23.350;2023-03-01T01:23:52;62530.19;;;5.24;100.00
6899;BME280;3488;42.616;23.350;2023-03-01T01:26:22;62545.94;;;5.30;100.00
6899;BME280;3488;42.616;23.350;2023-03-01T01:28:50;62543.38;;;5.27;100.00
6899;BME280;3488;42.616;23.350;2023-03-01T01:31:17;62540.44;;;5.32;100.00
6899;BME280;3488;42.616;23.350;2023-03-01T01:33:46;62533.63;;;5.20;100.00
6899;BME280;3488;42.616;23.350;2023-03-01T01:36:13;62530.59;;;5.20;100.00
6899;BME280;3488;42.616;23.350;2023-03-01T01:38:41;62529.50;;;5.16;100.00
6899;BME280;3488;42.616;23.350;2023-03-01T01:41:10;62529.00;;;5.16;100.00
6899;BME280;3488;42.616;23.350;2023-03-01T01:43:40;62519.84;;;5.12;100.00
6899;BME280;3488;42.616;23.350;2023-03-01T01:46:16;62534.72;;;5.24;100.00
6899;BME280;3488;42.616;23.350;2023-03-01T01:48:52;62541.94;;;5.31;100.00
6899;BME280;3488;42.616;23.350;2023-03-01T01:51:22;62535.13;;;5.19;100.00
6899;BME280;3488;42.616;23.350;2023-03-01T01:53:53;62535.28;;;5.27;100.00
6899;BME280;3488;42.616;23.350;2023-03-01T01:56:22;62541.38;;;5.28;100.00
6899;BME280;3488;42.616;23.350;2023-03-01T01:58:50;62540.78;;;5.25;100.00
6899;BME280;3488;42.616;23.350;2023-03-01T02:01:18;62553.25;;;5.42;100.00
6899;BME280;3488;42.616;23.350;2023-03-01T02:03:46;62556.28;;;5.42;100.00
6899;BME280;3488;42.616;23.350;2023-03-01T02:06:19;62548.63;;;5.37;100.00
6899;BME280;3488;42.616;23.350;2023-03-01T02:08:48;62535.69;;;5.22;100.00
6899;BME280;3488;42.616;23.350;2023-03-01T02:11:17;62539.81;;;5.26;100.00
6899;BME280;3488;42.616;23.350;2023-03-01T02:13:47;62517.25;;;5.09;100.00
6899;BME280;3488;42.616;23.350;2023-03-01T02:16:15;62535.69;;;5.22;100.00
6899;BME280;3488;42.616;23.350;2023-03-01T02:18:43;62527.97;;;5.15;100.00
6899;BME280;3488;42.616;23.350;2023-03-01T02:21:30;62538.78;;;5.25;100.00
6899;BME280;3488;42.616;23.350;2023-03-01T02:24:13;62532.09;;;5.19;100.00
6899;BME280;3488;42.616;23.350;2023-03-01T02:26:47;62542.94;;;5.32;100.00
6899;BME280;3488;42.616;23.350;2023-03-01T02:29:16;62554.22;;;5.40;100.00
6899;BME280;3488;42.616;23.350;2023-03-01T02:31:43;62541.38;;;5.28;100.00
6899;BME280;3488;42.616;23.350;2023-03-01T02:34:13;62553.72;;;5.40;100.00
6899;BME280;3488;42.616;23.350;2023-03-01T02:36:45;62554.19;;;5.38;100.00
6899;BME280;3488;42.616;23.350;2023-03-01T02:39:15;62539.41;;;5.31;100.00
6899;BME280;3488;42.616;23.350;2023-03-01T02:41:47;62550.69;;;5.39;100.00
6899;BME280;3488;42.616;23.350;2023-03-01T02:44:17;62554.28;;;5.43;100.00
6899;BME280;3488;42.616;23.350;2023-03-01T02:46:46;62572.78;;;5.58;100.00
6899;BME280;3488;42.616;23.350;2023-03-01T02:49:22;62577.41;;;5.63;100.00
6899;BME280;3488;42.616;23.350;2023-03-01T02:54:56;62583.59;;;5.69;100.00
6899;BME280;3488;42.616;23.350;2023-03-01T02:57:27;62579.53;;;5.67;100.00
6899;BME280;3488;42.616;23.350;2023-03-01T02:59:58;62584.22;;;5.74;100.00
6899;BME280;3488;42.616;23.350;2023-03-01T03:02:29;62600.63;;;5.85;100.00
6899;BME280;3488;42.616;23.350;2023-03-01T03:05:08;62610.88;;;5.93;100.00
6899;BME280;3488;42.616;23.350;2023-03-01T03:07:37;62586.75;;;5.74;100.00
6899;BME280;3488;42.616;23.350;2023-03-01T03:10:06;62570.72;;;5.56;100.00
6899;BME280;3488;42.616;23.350;2023-03-01T03:12:34;62588.22;;;5.73;100.00
6899;BME280;3488;42.616;23.350;2023-03-01T03:15:03;62591.31;;;5.76;100.00
6899;BME280;3488;42.616;23.350;2023-03-01T03:17:34;62592.41;;;5.80;100.00
6899;BME280;3488;42.616;23.350;2023-03-01T03:20:02;62582.53;;;5.65;100.00
6899;BME280;3488;42.616;23.350;2023-03-01T03:22:30;62589.78;;;5.75;100.00
6899;BME280;3488;42.616;23.350;2023-03-01T03:24:59;62585.19;;;5.73;100.00
6899;BME280;3488;42.616;23.350;2023-03-01T03:27:28;62596.50;;;5.81;100.00
6899;BME280;3488;42.616;23.350;2023-03-01T03:29:57;62580.00;;;5.65;100.00
6899;BME280;3488;42.616;23.350;2023-03-01T03:32:25;62588.75;;;5.74;100.00
6899;BME280;3488;42.616;23.350;2023-03-01T03:34:52;62595.91;;;5.78;100.00
6899;BME280;3488;42.616;23.350;2023-03-01T03:37:19;62576.94;;;5.65;100.00
6899;BME280;3488;42.616;23.350;2023-03-01T03:40:05;62587.66;;;5.70;100.00
6899;BME280;3488;42.616;23.350;2023-03-01T03:42:40;62606.81;;;5.92;100.00
6899;BME280;3488;42.616;23.350;2023-03-01T03:45:08;62601.03;;;5.81;100.00
6899;BME280;3488;42.616;23.350;2023-03-01T03:47:36;62595.00;;;5.82;100.00
6899;BME280;3488;42.616;23.350;2023-03-01T03:50:04;62606.22;;;5.88;100.00
6899;BME280;3488;42.616;23.350;2023-03-01T03:52:31;62583.59;;;5.69;100.00
6899;BME280;3488;42.616;23.350;2023-03-01T03:54:58;62580.56;;;5.68;100.00
6899;BME280;3488;42.616;23.350;2023-03-01T04:03:16;62558.41;;;5.47;100.00
6899;BME280;3488;42.616;23.350;2023-03-01T04:05:44;62569.22;;;5.57;100.00
6899;BME280;3488;42.616;23.350;2023-03-01T04:08:11;62570.19;;;5.56;100.00
6899;BME280;3488;42.616;23.350;2023-03-01T04:10:41;62571.75;;;5.57;100.00
6899;BME280;3488;42.616;23.350;2023-03-01T04:13:12;62567.19;;;5.55;100.00
6899;BME280;3488;42.616;23.350;2023-03-01T04:15:40;62562.47;;;5.48;100.00
6899;BME280;3488;42.616;23.350;2023-03-01T04:18:09;62562.53;;;5.51;100.00
6899;BME280;3488;42.616;23.350;2023-03-01T04:20:40;62556.28;;;5.42;100.00
6899;BME280;3488;42.616;23.350;2023-03-01T04:23:09;62545.00;;;5.34;100.00
6899;BME280;3488;42.616;23.350;2023-03-01T04:25:39;62561.41;;;5.45;100.00
6899;BME280;3488;42.616;23.350;2023-03-01T04:28:07;62550.59;;;5.34;100.00
6899;BME280;3488;42.616;23.350;2023-03-01T04:30:35;62570.19;;;5.56;100.00
6899;BME280;3488;42.616;23.350;2023-03-01T04:33:03;62577.94;;;5.63;100.00
6899;BME280;3488;42.616;23.350;2023-03-01T04:35:31;62580.53;;;5.66;100.00
6899;BME280;3488;42.616;23.350;2023-03-01T04:37:59;62557.84;;;5.44;100.00
6899;BME280;3488;42.616;23.350;2023-03-01T04:40:26;62541.97;;;5.33;100.00
6899;BME280;3488;42.616;23.350;2023-03-01T04:42:54;62549.66;;;5.38;100.00
6899;BME280;3488;42.616;23.350;2023-03-01T04:45:21;62528.94;;;5.13;100.00
6899;BME280;3488;42.616;23.350;2023-03-01T04:47:48;62544.41;;;5.28;100.00
6899;BME280;3488;42.616;23.350;2023-03-01T04:50:18;62564.59;;;5.53;100.00
6899;BME280;3488;42.616;23.350;2023-03-01T04:52:48;62547.69;;;5.41;100.00
6899;BME280;3488;42.616;23.350;2023-03-01T04:55:16;62534.66;;;5.21;100.00
6899;BME280;3488;42.616;23.350;2023-03-01T04:57:43;62544.00;;;5.33;100.00
6899;BME280;3488;42.616;23.350;2023-03-01T05:00:13;62559.38;;;5.45;100.00
6899;BME280;3488;42.616;23.350;2023-03-01T05:02:58;62540.88;;;5.30;100.00
6899;BME280;3488;42.616;23.350;2023-03-01T05:05:27;62525.44;;;5.15;100.00
6899;BME280;3488;42.616;23.350;2023-03-01T05:07:56;62535.63;;;5.20;100.00
6899;BME280;3488;42.616;23.350;2023-03-01T05:10:26;62537.88;;;5.29;100.00
6899;BME280;3488;42.616;23.350;2023-03-01T05:12:54;62540.88;;;5.30;100.00
6899;BME280;3488;42.616;23.350;2023-03-01T05:15:23;62550.69;;;5.39;100.00
6899;BME280;3488;42.616;23.350;2023-03-01T05:17:51;62562.03;;;5.50;100.00
6899;BME280;3488;42.616;23.350;2023-03-01T05:20:18;62573.31;;;5.59;100.00
6899;BME280;3488;42.616;23.350;2023-03-01T05:22:48;62567.13;;;5.53;100.00
6899;BME280;3488;42.616;23.350;2023-03-01T05:25:15;62581.03;;;5.66;100.00
6899;BME280;3488;42.616;23.350;2023-03-01T05:27:44;62586.59;;;5.67;100.00
6899;BME280;3488;42.616;23.350;2023-03-01T05:30:12;62595.00;;;5.82;100.00
6899;BME280;3488;42.616;23.350;2023-03-01T05:32:45;62590.81;;;5.76;100.00
6899;BME280;3488;42.616;23.350;2023-03-01T05:35:15;62592.91;;;5.80;100.00
6899;BME280;3488;42.616;23.350;2023-03-01T05:37:43;62593.91;;;5.79;100.00
6899;BME280;3488;42.616;23.350;2023-03-01T05:40:12;62607.91;;;5.95;100.00
6899;BME280;3488;42.616;23.350;2023-03-01T05:42:48;62614.59;;;6.02;100.00
6899;BME280;3488;42.616;23.350;2023-03-01T05:45:16;62609.44;;;5.97;100.00
6899;BME280;3488;42.616;23.350;2023-03-01T05:47:44;62587.78;;;5.75;100.00
6899;BME280;3488;42.616;23.350;2023-03-01T05:50:14;62596.50;;;5.81;100.00
6899;BME280;3488;42.616;23.350;2023-03-01T05:52:45;62605.81;;;5.93;100.00
6899;BME280;3488;42.616;23.350;2023-03-01T05:55:12;62585.66;;;5.71;100.00
6899;BME280;3488;42.616;23.350;2023-03-01T05:57:39;62570.78;;;5.59;100.00
6899;BME280;3488;42.616;23.350;2023-03-01T06:00:10;62582.09;;;5.70;100.00
6899;BME280;3488;42.616;23.350;2023-03-01T06:02:38;62587.78;;;5.75;100.00
6899;BME280;3488;42.616;23.350;2023-03-01T06:05:06;62584.63;;;5.70;100.00
6899;BME280;3488;42.616;23.350;2023-03-01T06:07:33;62594.03;;;5.84;100.00
6899;BME280;3488;42.616;23.350;2023-03-01T06:10:04;62606.22;;;5.88;100.00
6899;BME280;3488;42.616;23.350;2023-03-01T06:12:32;62608.28;;;5.91;100.00
6899;BME280;3488;42.616;23.350;2023-03-01T06:14:59;62626.34;;;6.08;100.00
6899;BME280;3488;42.616;23.350;2023-03-01T06:17:29;62615.06;;;6.00;100.00
6899;BME280;3488;42.616;23.350;2023-03-01T06:19:56;62628.94;;;6.11;100.00
6899;BME280;3488;42.616;23.350;2023-03-01T06:22:23;62635.19;;;6.22;100.00
6899;BME280;3488;42.616;23.350;2023-03-01T06:24:50;62658.28;;;6.39;100.00
6899;BME280;3488;42.616;23.350;2023-03-01T06:27:17;62647.00;;;6.31;100.00
6899;BME280;3488;42.616;23.350;2023-03-01T06:29:44;62658.34;;;6.42;100.00
6899;BME280;3488;42.616;23.350;2023-03-01T06:32:11;62648.09;;;6.34;100.00
6899;BME280;3488;42.616;23.350;2023-03-01T06:34:39;62673.81;;;6.57;100.00
6899;BME280;3488;42.616;23.350;2023-03-01T06:37:07;62660.91;;;6.44;100.00
6899;BME280;3488;42.616;23.350;2023-03-01T06:39:35;62655.25;;;6.39;100.00
6899;BME280;3488;42.616;23.350;2023-03-01T06:42:05;62642.38;;;6.26;100.00
6899;BME280;3488;42.616;23.350;2023-03-01T06:44:32;62651.63;;;6.35;100.00
6899;BME280;3488;42.616;23.350;2023-03-01T06:46:59;62663.53;;;6.49;100.00
6899;BME280;3488;42.616;23.350;2023-03-01T06:49:26;62668.19;;;6.54;100.00
6899;BME280;3488;42.616;23.350;2023-03-01T06:51:55;62662.94;;;6.44;100.00
6899;BME280;3488;42.616;23.350;2023-03-01T06:54:22;62700.16;;;6.85;100.00
6899;BME280;3488;42.616;23.350;2023-03-01T06:56:51;62720.69;;;7.00;100.00
6899;BME280;3488;42.616;23.350;2023-03-01T06:59:24;62699.03;;;6.79;100.00
6899;BME280;3488;42.616;23.350;2023-03-01T07:01:53;62713.56;;;6.98;100.00
6899;BME280;3488;42.616;23.350;2023-03-01T07:04:27;62724.41;;;7.09;100.00
6899;BME280;3488;42.616;23.350;2023-03-01T07:06:57;62762.56;;;7.46;100.00
6899;BME280;3488;42.616;23.350;2023-03-01T07:09:24;62765.16;;;7.48;100.00
6899;BME280;3488;42.616;23.350;2023-03-01T07:11:51;62737.78;;;7.19;100.00
6899;BME280;3488;42.616;23.350;2023-03-01T07:14:18;62752.22;;;7.33;100.00
6899;BME280;3488;42.616;23.350;2023-03-01T07:16:45;62773.84;;;7.52;100.00
6899;BME280;3488;42.616;23.350;2023-03-01T07:19:12;62780.63;;;7.63;100.00
6899;BME280;3488;42.616;23.350;2023-03-01T07:21:39;62813.06;;;7.90;100.00
6899;BME280;3488;42.616;23.350;2023-03-01T07:24:08;62796.56;;;7.74;100.00
6899;BME280;3488;42.616;23.350;2023-03-01T07:26:35;62819.88;;;8.01;100.00
6899;BME280;3488;42.616;23.350;2023-03-01T07:29:04;62825.50;;;8.04;100.00
6899;BME280;3488;42.616;23.350;2023-03-01T07:31:32;62824.94;;;8.01;100.00
6899;BME280;3488;42.616;23.350;2023-03-01T07:33:58;62833.25;;;8.12;100.00
6899;BME280;3488;42.616;23.350;2023-03-01T07:36:25;62844.63;;;8.23;100.00
6899;BME280;3488;42.616;23.350;2023-03-01T07:38:52;62814.16;;;7.93;100.00
6899;BME280;3488;42.616;23.350;2023-03-01T07:41:22;62813.16;;;7.95;100.00
6899;BME280;3488;42.616;23.350;2023-03-01T07:43:49;62801.19;;;7.78;100.00
6899;BME280;3488;42.616;23.350;2023-03-01T07:46:16;62753.41;;;7.42;100.00
6899;BME280;3488;42.616;23.350;2023-03-01T07:48:44;62761.47;;;7.40;100.00
6899;BME280;3488;42.616;23.350;2023-03-01T07:51:11;62758.47;;;7.42;100.00
6899;BME280;3488;42.616;23.350;2023-03-01T07:53:38;62763.09;;;7.46;100.00
6899;BME280;3488;42.616;23.350;2023-03-01T07:56:07;62781.09;;;7.61;100.00
6899;BME280;3488;42.616;23.350;2023-03-01T07:58:37;62786.78;;;7.67;100.00
6899;BME280;3488;42.616;23.350;2023-03-01T08:01:06;62801.19;;;7.78;100.00
6899;BME280;3488;42.616;23.350;2023-03-01T08:03:33;62787.84;;;7.68;100.00
6899;BME280;3488;42.616;23.350;2023-03-01T08:06:02;62769.81;;;7.53;100.00
6899;BME280;3488;42.616;23.350;2023-03-01T08:08:29;62728.53;;;7.13;100.00
6899;BME280;3488;42.616;23.350;2023-03-01T08:10:57;62708.34;;;6.90;100.00
6899;BME280;3488;42.616;23.350;2023-03-01T08:13:26;62763.56;;;7.44;100.00
6899;BME280;3488;42.616;23.350;2023-03-01T08:15:54;62723.84;;;7.06;100.00
6899;BME280;3488;42.616;23.350;2023-03-01T08:18:21;62715.16;;;7.02;100.00
6899;BME280;3488;42.616;23.350;2023-03-01T08:20:48;62718.16;;;7.00;100.00
6899;BME280;3488;42.616;23.350;2023-03-01T08:23:15;62742.47;;;7.26;100.00
6899;BME280;3488;42.616;23.350;2023-03-01T08:25:42;62772.25;;;7.48;100.00
6899;BME280;3488;42.616;23.350;2023-03-01T08:28:09;62777.53;;;7.60;100.00
6899;BME280;3488;42.616;23.350;2023-03-01T08:30:36;62797.09;;;7.77;100.00
6899;BME280;3488;42.616;23.350;2023-03-01T08:33:04;62813.69;;;7.95;100.00
6899;BME280;3488;42.616;23.350;2023-03-01T08:35:31;62809.50;;;7.89;100.00
6899;BME280;3488;42.616;23.350;2023-03-01T08:37:58;62832.69;;;8.09;100.00
6899;BME280;3488;42.616;23.350;2023-03-01T08:40:26;62830.16;;;8.09;100.00
6899;BME280;3488;42.616;23.350;2023-03-01T08:42:53;62861.69;;;8.40;100.00
6899;BME280;3488;42.616;23.350;2023-03-01T08:45:20;62868.84;;;8.44;100.00
6899;BME280;3488;42.616;23.350;2023-03-01T08:47:47;62905.56;;;8.82;99.28
6899;BME280;3488;42.616;23.350;2023-03-01T08:50:15;62903.56;;;8.83;97.07
6899;BME280;3488;42.616;23.350;2023-03-01T08:52:42;62901.97;;;8.79;97.02
6899;BME280;3488;42.616;23.350;2023-03-01T08:55:09;62883.41;;;8.63;96.16
6899;BME280;3488;42.616;23.350;2023-03-01T08:57:36;62898.31;;;8.73;97.15
6899;BME280;3488;42.616;23.350;2023-03-01T09:00:04;62902.44;;;8.77;97.61
6899;BME280;3488;42.616;23.350;2023-03-01T09:02:33;62860.13;;;8.38;97.71
6899;BME280;3488;42.616;23.350;2023-03-01T09:05:00;62828.09;;;8.07;100.00
6899;BME280;3488;42.616;23.350;2023-03-01T09:07:29;62871.47;;;8.49;98.89
6899;BME280;3488;42.616;23.350;2023-03-01T09:09:56;62846.75;;;8.28;100.00
6899;BME280;3488;42.616;23.350;2023-03-01T09:12:23;62883.41;;;8.63;98.80
6899;BME280;3488;42.616;23.350;2023-03-01T09:14:50;62884.91;;;8.62;98.64
6899;BME280;3488;42.616;23.350;2023-03-01T09:17:17;62905.03;;;8.79;96.58
6899;BME280;3488;42.616;23.350;2023-03-01T09:19:47;62915.91;;;8.92;96.49
6899;BME280;3488;42.616;23.350;2023-03-01T09:22:14;62935.06;;;9.13;93.83
6899;BME280;3488;42.616;23.350;2023-03-01T09:24:43;62938.69;;;9.17;93.08
6899;BME280;3488;42.616;23.350;2023-03-01T09:27:10;62902.44;;;8.77;94.38
6899;BME280;3488;42.616;23.350;2023-03-01T09:29:38;62896.28;;;8.73;95.73
6899;BME280;3488;42.616;23.350;2023-03-01T09:32:05;62906.66;;;8.86;95.50
6899;BME280;3488;42.616;23.350;2023-03-01T09:34:34;62881.31;;;8.59;96.42
6899;BME280;3488;42.616;23.350;2023-03-01T09:37:24;62869.38;;;8.45;97.15
6899;BME280;3488;42.616;23.350;2023-03-01T09:39:52;62885.44;;;8.63;97.69
6899;BME280;3488;42.616;23.350;2023-03-01T09:42:20;62854.34;;;8.28;98.64
6899;BME280;3488;42.616;23.350;2023-03-01T09:44:51;62863.28;;;8.44;100.00
6899;BME280;3488;42.616;23.350;2023-03-01T09:47:20;62903.56;;;8.83;97.39
6899;BME280;3488;42.616;23.350;2023-03-01T09:49:55;62868.38;;;8.46;97.43
6899;BME280;3488;42.616;23.350;2023-03-01T09:52:31;62894.69;;;8.69;98.05
6899;BME280;3488;42.616;23.350;2023-03-01T09:55:09;62895.72;;;8.70;96.60
6899;BME280;3488;42.616;23.350;2023-03-01T09:57:43;62900.38;;;8.75;96.42
6899;BME280;3488;42.616;23.350;2023-03-01T10:00:20;62934.00;;;9.10;94.93
6899;BME280;3488;42.616;23.350;2023-03-01T10:02:51;62952.09;;;9.27;94.26
6899;BME280;3488;42.616;23.350;2023-03-01T10:05:37;62961.81;;;9.32;94.19
6899;BME280;3488;42.616;23.350;2023-03-01T10:08:33;62984.66;;;9.59;93.05
6899;BME280;3488;42.616;23.350;2023-03-01T10:11:04;62955.19;;;9.30;92.84
6899;BME280;3488;42.616;23.350;2023-03-01T10:13:37;62962.47;;;9.40;93.20
6899;BME280;3488;42.616;23.350;2023-03-01T10:16:13;62931.84;;;9.03;93.28
6899;BME280;3488;42.616;23.350;2023-03-01T10:18:46;62927.84;;;9.06;96.78
6899;BME280;3488;42.616;23.350;2023-03-01T10:21:17;62959.38;;;9.37;94.67
6899;BME280;3488;42.616;23.350;2023-03-01T10:23:46;62973.81;;;9.49;92.66
6899;BME280;3488;42.616;23.350;2023-03-01T10:26:30;62955.09;;;9.25;94.03
6899;BME280;3488;42.616;23.350;2023-03-01T10:29:03;62912.28;;;8.89;96.31
6899;BME280;3488;42.616;23.350;2023-03-01T10:31:38;62858.59;;;8.37;100.00
6899;BME280;3488;42.616;23.350;2023-03-01T10:34:10;62924.13;;;8.98;99.43
6899;BME280;3488;42.616;23.350;2023-03-01T10:36:38;62954.16;;;9.29;97.14
6899;BME280;3488;42.616;23.350;2023-03-01T10:39:13;62990.31;;;9.62;96.88
6899;BME280;3488;42.616;23.350;2023-03-01T10:41:53;62953.13;;;9.28;96.91
6899;BME280;3488;42.616;23.350;2023-03-01T10:44:42;63002.72;;;9.74;94.98
6899;BME280;3488;42.616;23.350;2023-03-01T10:47:16;63015.66;;;9.87;91.96
6899;BME280;3488;42.616;23.350;2023-03-01T10:50:00;62972.25;;;9.47;92.44
6899;BME280;3488;42.616;23.350;2023-03-01T10:52:30;62943.31;;;9.19;94.81
6899;BME280;3488;42.616;23.350;2023-03-01T10:54:59;62949.00;;;9.24;95.78
6899;BME280;3488;42.616;23.350;2023-03-01T10:57:35;62941.19;;;9.14;95.89
6899;BME280;3488;42.616;23.350;2023-03-01T11:00:24;62945.94;;;9.24;96.51
6899;BME280;3488;42.616;23.350;2023-03-01T11:03:03;62960.44;;;9.41;95.54
6899;BME280;3488;42.616;23.350;2023-03-01T11:05:36;62986.22;;;9.61;92.97
6899;BME280;3488;42.616;23.350;2023-03-01T11:08:03;62968.59;;;9.41;95.18
6899;BME280;3488;42.616;23.350;2023-03-01T11:10:33;63008.97;;;9.83;91.68
6899;BME280;3488;42.616;23.350;2023-03-01T11:13:14;63031.69;;;10.02;89.72
6899;BME280;3488;42.616;23.350;2023-03-01T11:15:42;63036.91;;;10.10;89.78
6899;BME280;3488;42.616;23.350;2023-03-01T11:18:20;62997.63;;;9.74;90.53
6899;BME280;3488;42.616;23.350;2023-03-01T11:20:48;63010.50;;;9.84;90.46
6899;BME280;3488;42.616;23.350;2023-03-01T11:23:17;63010.56;;;9.87;89.42
6899;BME280;3488;42.616;23.350;2023-03-01T11:25:49;62961.91;;;9.37;92.86
6899;BME280;3488;42.616;23.350;2023-03-01T11:28:20;62977.44;;;9.52;91.61
6899;BME280;3488;42.616;23.350;2023-03-01T11:30:50;62908.13;;;8.82;94.70
6899;BME280;3488;42.616;23.350;2023-03-01T11:33:25;62891.09;;;8.68;97.88
6899;BME280;3488;42.616;23.350;2023-03-01T11:36:02;62876.66;;;8.54;98.94
6899;BME280;3488;42.616;23.350;2023-03-01T11:38:34;62896.78;;;8.74;98.96
6899;BME280;3488;42.616;23.350;2023-03-01T11:41:06;62944.84;;;9.20;97.56
6899;BME280;3488;42.616;23.350;2023-03-01T11:43:44;62895.34;;;8.77;97.75
6899;BME280;3488;42.616;23.350;2023-03-01T11:46:37;62860.06;;;8.36;100.00
6899;BME280;3488;42.616;23.350;2023-03-01T11:49:25;62894.16;;;8.69;99.53
6899;BME280;3488;42.616;23.350;2023-03-01T11:52:02;62876.13;;;8.54;100.00
6899;BME280;3488;42.616;23.350;2023-03-01T11:54:46;62879.69;;;8.55;100.00
6899;BME280;3488;42.616;23.350;2023-03-01T11:57:36;62837.94;;;8.19;100.00
6899;BME280;3488;42.616;23.350;2023-03-01T12:00:23;62838.97;;;8.20;100.00
6899;BME280;3488;42.616;23.350;2023-03-01T12:06:30;62883.38;;;8.61;100.00
6899;BME280;3488;42.616;23.350;2023-03-01T12:09:13;62951.56;;;9.27;99.27
6899;BME280;3488;42.616;23.350;2023-03-01T12:11:54;62971.69;;;9.44;97.79
6899;BME280;3488;42.616;23.350;2023-03-01T12:14:40;63038.94;;;10.09;92.82
6899;BME280;3488;42.616;23.350;2023-03-01T12:17:31;63052.94;;;10.25;90.11
6899;BME280;3488;42.616;23.350;2023-03-01T12:20:09;63101.59;;;10.73;88.07
6899;BME280;3488;42.616;23.350;2023-03-01T12:22:48;63072.59;;;10.44;88.10
6899;BME280;3488;42.616;23.350;2023-03-01T12:25:29;63037.31;;;10.05;88.02
6899;BME280;3488;42.616;23.350;2023-03-01T12:31:14;63012.59;;;9.86;90.10
6899;BME280;3488;42.616;23.350;2023-03-01T12:33:53;63009.41;;;9.78;91.41
6899;BME280;3488;42.616;23.350;2023-03-01T12:36:45;63032.25;;;10.05;90.76
6899;BME280;3488;42.616;23.350;2023-03-01T12:39:32;63049.78;;;10.20;90.34
6899;BME280;3488;42.616;23.350;2023-03-01T12:42:10;63024.00;;;10.00;90.52
6899;BME280;3488;42.616;23.350;2023-03-01T12:44:54;63027.59;;;10.01;91.90
6899;BME280;3488;42.616;23.350;2023-03-01T12:47:35;63063.72;;;10.31;88.17
6899;BME280;3488;42.616;23.350;2023-03-01T12:50:17;63068.44;;;10.38;87.57
6899;BME280;3488;42.616;23.350;2023-03-01T12:52:50;63069.53;;;10.44;87.16
6899;BME280;3488;42.616;23.350;2023-03-01T12:55:26;63095.94;;;10.70;86.66
6899;BME280;3488;42.616;23.350;2023-03-01T12:58:07;63095.91;;;10.67;86.95
6899;BME280;3488;42.616;23.350;2023-03-01T13:00:47;63088.69;;;10.63;85.81
6899;BME280;3488;42.616;23.350;2023-03-01T13:03:23;63071.06;;;10.43;87.37
6899;BME280;3488;42.616;23.350;2023-03-01T13:06:04;63109.38;;;10.83;85.64
6899;BME280;3488;42.616;23.350;2023-03-01T13:08:40;63137.22;;;11.02;83.37
6899;BME280;3488;42.616;23.350;2023-03-01T13:11:19;63105.78;;;10.79;83.95
6899;BME280;3488;42.616;23.350;2023-03-01T13:13:47;63081.88;;;10.51;85.30
6899;BME280;3488;42.616;23.350;2023-03-01T13:19:09;63054.03;;;10.29;88.00
6899;BME280;3488;42.616;23.350;2023-03-01T13:21:41;63016.19;;;9.90;90.08
6899;BME280;3488;42.616;23.350;2023-03-01T13:24:23;63046.16;;;10.16;90.22
6899;BME280;3488;42.616;23.350;2023-03-01T13:27:21;63024.47;;;9.98;90.81
6899;BME280;3488;42.616;23.350;2023-03-01T13:29:52;63046.28;;;10.21;89.14
6899;BME280;3488;42.616;23.350;2023-03-01T13:32:21;63038.97;;;10.12;89.10
6899;BME280;3488;42.616;23.350;2023-03-01T13:34:53;63007.81;;;9.74;92.08
6899;BME280;3488;42.616;23.350;2023-03-01T13:37:40;62984.63;;;9.57;92.71
6899;BME280;3488;42.616;23.350;2023-03-01T13:43:35;62941.75;;;9.17;97.32
6899;BME280;3488;42.616;23.350;2023-03-01T13:46:08;62909.16;;;8.83;98.28
6899;BME280;3488;42.616;23.350;2023-03-01T13:48:37;62889.00;;;8.64;100.00
6899;BME280;3488;42.616;23.350;2023-03-01T13:51:07;62894.78;;;8.74;100.00
6899;BME280;3488;42.616;23.350;2023-03-01T13:53:39;62912.78;;;8.87;100.00